createdAt,value
2022-08-14T00:02:08.249Z,7.70
2022-08-14T00:04:42.200Z,7.83
2022-08-14T00:07:15.128Z,7.23
2022-08-14T00:09:56.009Z,7.18
2022-08-14T00:12:37.912Z,7.53
2022-08-14T00:15:16.013Z,7.00
2022-08-14T00:17:48.417Z,7.07
2022-08-14T00:20:30.795Z,7.80
2022-08-14T00:23:16.276Z,7.43
2022-08-14T00:25:59.067Z,8.10
2022-08-14T00:28:37.504Z,7.13
2022-08-14T00:31:10.190Z,8.10
2022-08-14T00:33:52.272Z,8.40
2022-08-14T00:36:36.359Z,7.77
2022-08-14T00:39:18.566Z,8.00
2022-08-14T00:41:48.996Z,7.87
2022-08-14T00:44:21.355Z,8.20
2022-08-14T00:46:59.956Z,7.30
2022-08-14T00:49:37.908Z,8.20
2022-08-14T00:52:08.553Z,7.67
2022-08-14T00:54:38.919Z,7.07
2022-08-14T00:57:10.203Z,8.03
2022-08-14T00:59:41.466Z,7.40
2022-08-14T01:02:15.458Z,7.83
2022-08-14T01:04:53.961Z,7.80
2022-08-14T01:07:27.358Z,8.03
2022-08-14T01:10:01.368Z,8.23
2022-08-14T01:12:32.777Z,8.07
2022-08-14T01:15:04.682Z,7.67
2022-08-14T01:17:54.165Z,7.67
2022-08-14T01:20:39.759Z,9.07
2022-08-14T01:23:18.843Z,8.80
2022-08-14T01:25:51.866Z,12.80
2022-08-14T01:28:46.248Z,10.50
2022-08-14T01:31:15.617Z,11.13
2022-08-14T01:34:00.035Z,11.00
2022-08-14T01:36:39.785Z,11.37
2022-08-14T01:39:14.648Z,8.73
2022-08-14T01:41:46.821Z,8.67
2022-08-14T01:44:32.182Z,7.93
2022-08-14T01:47:11.687Z,7.60
2022-08-14T01:49:46.412Z,8.10
2022-08-14T01:52:59.384Z,7.70
2022-08-14T01:55:32.220Z,8.30
2022-08-14T01:58:19.457Z,8.67
2022-08-14T02:00:55.704Z,7.77
2022-08-14T02:03:30.010Z,7.57
2022-08-14T02:06:03.801Z,8.20
2022-08-14T02:08:53.323Z,8.70
2022-08-14T02:11:29.012Z,8.20
2022-08-14T02:14:06.782Z,8.17
2022-08-14T02:16:39.575Z,8.10
2022-08-14T02:19:12.374Z,8.50
2022-08-14T02:21:43.437Z,8.43
2022-08-14T02:24:40.102Z,8.47
2022-08-14T02:28:25.369Z,8.97
2022-08-14T02:30:00.092Z,8.20
2022-08-14T02:32:36.756Z,7.63
2022-08-14T02:35:19.112Z,7.87
2022-08-14T02:37:52.741Z,9.67
2022-08-14T02:40:32.500Z,14.00
2022-08-14T02:43:07.965Z,13.17
2022-08-14T02:45:44.248Z,12.00
2022-08-14T02:49:03.089Z,9.60
2022-08-14T02:51:09.132Z,8.50
2022-08-14T02:53:42.352Z,8.80
2022-08-14T02:56:30.411Z,8.40
2022-08-14T02:59:09.526Z,7.50
2022-08-14T03:01:50.317Z,8.17
2022-08-14T03:04:20.883Z,8.20
2022-08-14T03:06:57.769Z,8.33
2022-08-14T03:10:27.040Z,8.90
2022-08-14T03:12:31.145Z,7.20
2022-08-14T03:15:14.166Z,7.33
2022-08-14T03:17:56.846Z,7.70
2022-08-14T03:20:28.826Z,7.90
2022-08-14T03:23:00.320Z,8.27
2022-08-14T03:25:37.567Z,6.50
2022-08-14T03:28:14.737Z,7.50
2022-08-14T03:31:01.490Z,9.50
2022-08-14T03:33:37.370Z,8.90
2022-08-14T03:37:37.814Z,8.77
2022-08-14T03:39:14.737Z,8.67
2022-08-14T03:41:52.563Z,9.27
2022-08-14T03:45:19.679Z,9.00
2022-08-14T03:47:15.181Z,9.50
2022-08-14T03:49:49.902Z,9.20
2022-08-14T03:52:55.634Z,8.57
2022-08-14T03:55:13.646Z,8.27
2022-08-14T03:57:44.151Z,8.43
2022-08-14T04:00:44.244Z,8.30
2022-08-14T04:03:16.489Z,8.80
2022-08-14T04:05:49.544Z,10.10
2022-08-14T04:08:29.258Z,8.57
2022-08-14T04:11:02.917Z,8.67
2022-08-14T04:13:39.483Z,9.43
2022-08-14T04:16:13.172Z,9.00
2022-08-14T04:18:47.219Z,9.57
2022-08-14T04:21:19.259Z,10.10
2022-08-14T04:23:57.027Z,9.13
2022-08-14T04:26:42.276Z,9.43
2022-08-14T04:29:16.045Z,9.60
2022-08-14T04:32:58.578Z,9.03
2022-08-14T04:34:42.046Z,8.97
2022-08-14T04:37:24.854Z,9.70
2022-08-14T04:40:09.350Z,9.73
2022-08-14T04:42:53.331Z,9.60
2022-08-14T04:45:25.252Z,8.57
2022-08-14T04:48:12.484Z,10.97
2022-08-14T04:50:49.151Z,9.90
2022-08-14T04:53:34.862Z,8.87
2022-08-14T04:56:10.676Z,8.77
2022-08-14T04:59:02.288Z,9.33
2022-08-14T05:01:39.718Z,8.83
2022-08-14T05:04:14.615Z,8.97
2022-08-14T05:06:49.151Z,8.90
2022-08-14T05:09:19.310Z,9.10
2022-08-14T05:11:51.768Z,8.67
2022-08-14T05:14:46.641Z,8.40
2022-08-14T05:17:13.134Z,8.43
2022-08-14T05:19:44.262Z,7.73
2022-08-14T05:22:35.628Z,8.00
2022-08-14T05:25:07.910Z,8.50
2022-08-14T05:27:37.610Z,7.90
2022-08-14T05:30:09.308Z,8.50
2022-08-14T05:32:39.827Z,8.60
2022-08-14T05:35:11.809Z,8.70
2022-08-14T05:37:46.987Z,8.67
2022-08-14T05:40:16.654Z,9.47
2022-08-14T05:42:52.775Z,9.57
2022-08-14T05:45:22.780Z,9.10
2022-08-14T05:47:55.209Z,9.00
2022-08-14T05:50:24.888Z,8.70
2022-08-14T05:53:01.533Z,8.60
2022-08-14T05:55:31.175Z,9.07
2022-08-14T05:58:03.222Z,8.43
2022-08-14T06:00:38.716Z,8.40
2022-08-14T06:03:11.643Z,7.93
2022-08-14T06:05:41.797Z,8.97
2022-08-14T06:08:36.136Z,8.53
2022-08-14T06:11:14.859Z,8.10
2022-08-14T06:13:50.267Z,7.37
2022-08-14T06:16:21.799Z,8.20
2022-08-14T06:18:53.271Z,8.00
2022-08-14T06:21:24.273Z,7.30
2022-08-14T06:23:56.538Z,8.20
2022-08-14T06:26:30.511Z,7.40
2022-08-14T06:29:00.644Z,8.40
2022-08-14T06:31:30.898Z,8.20
2022-08-14T06:35:11.236Z,7.80
2022-08-14T06:36:50.383Z,7.50
2022-08-14T06:39:37.454Z,8.07
2022-08-14T06:42:07.950Z,7.10
2022-08-14T06:44:57.867Z,7.53
2022-08-14T06:47:28.163Z,7.13
2022-08-14T06:49:58.642Z,7.50
2022-08-14T06:52:29.375Z,7.60
2022-08-14T06:55:02.000Z,7.50
2022-08-14T06:57:39.242Z,6.83
2022-08-14T07:00:22.231Z,6.97
2022-08-14T07:03:12.267Z,6.60
2022-08-14T07:05:55.468Z,7.77
2022-08-14T07:08:31.399Z,6.60
2022-08-14T07:11:05.545Z,7.10
2022-08-14T07:13:35.241Z,7.77
2022-08-14T07:16:05.934Z,7.60
2022-08-14T07:18:40.696Z,7.53
2022-08-14T07:21:12.133Z,7.40
2022-08-14T07:23:44.256Z,7.70
2022-08-14T07:26:17.056Z,7.37
2022-08-14T07:28:47.514Z,7.70
2022-08-14T07:31:17.698Z,7.70
2022-08-14T07:33:50.850Z,7.73
2022-08-14T07:36:27.059Z,7.13
2022-08-14T07:39:00.750Z,7.53
2022-08-14T07:41:35.872Z,7.77
2022-08-14T07:44:32.625Z,8.00
2022-08-14T07:46:55.869Z,7.50
2022-08-14T07:49:25.657Z,7.70
2022-08-14T07:51:55.493Z,8.40
2022-08-14T07:54:30.269Z,8.30
2022-08-14T07:57:11.818Z,7.73
2022-08-14T07:59:44.541Z,9.00
2022-08-14T08:02:20.398Z,7.57
2022-08-14T08:04:58.983Z,7.93
2022-08-14T08:07:33.647Z,7.20
2022-08-14T08:10:31.383Z,7.60
2022-08-14T08:13:24.099Z,7.47
2022-08-14T08:15:56.707Z,7.10
2022-08-14T08:18:31.060Z,7.97
2022-08-14T08:21:01.204Z,7.47
2022-08-14T08:23:40.917Z,6.57
2022-08-14T08:26:20.718Z,7.63
2022-08-14T08:29:01.754Z,8.17
2022-08-14T08:31:34.927Z,8.00
2022-08-14T08:34:14.332Z,6.93
2022-08-14T08:36:48.258Z,7.03
2022-08-14T08:39:30.828Z,6.80
2022-08-14T08:42:09.070Z,7.43
2022-08-14T08:44:42.854Z,7.33
2022-08-14T08:47:13.080Z,6.93
2022-08-14T08:49:52.846Z,6.80
2022-08-14T08:52:31.234Z,7.80
2022-08-14T08:55:04.982Z,7.60
2022-08-14T08:57:38.138Z,8.03
2022-08-14T09:00:25.867Z,6.97
2022-08-14T09:03:03.321Z,7.93
2022-08-14T09:05:35.336Z,7.40
2022-08-14T09:08:30.248Z,7.83
2022-08-14T09:11:02.625Z,8.00
2022-08-14T09:13:51.014Z,8.30
2022-08-14T09:16:26.981Z,7.70
2022-08-14T09:18:57.064Z,7.57
2022-08-14T09:21:31.645Z,6.90
2022-08-14T09:24:29.099Z,7.07
2022-08-14T09:26:53.067Z,7.50
2022-08-14T09:29:24.350Z,7.00
2022-08-14T09:32:26.879Z,7.80
2022-08-14T09:35:08.544Z,7.20
2022-08-14T09:37:48.489Z,6.70
2022-08-14T09:40:31.060Z,7.10
2022-08-14T09:43:10.353Z,6.93
2022-08-14T09:45:53.002Z,6.90
2022-08-14T09:48:30.966Z,6.50
2022-08-14T09:54:19.239Z,6.70
2022-08-14T09:56:36.672Z,6.83
2022-08-14T09:59:16.703Z,6.80
2022-08-14T10:01:52.944Z,5.90
2022-08-14T10:04:34.573Z,6.83
2022-08-14T10:07:08.429Z,6.77
2022-08-14T10:09:59.848Z,6.43
2022-08-14T10:12:48.616Z,6.23
2022-08-14T10:15:25.319Z,6.30
2022-08-14T10:18:17.700Z,7.07
2022-08-14T10:21:00.969Z,6.73
2022-08-14T10:23:46.665Z,6.13
2022-08-14T10:26:22.701Z,5.80
2022-08-14T10:29:19.391Z,6.77
2022-08-14T10:32:01.913Z,6.17
2022-08-14T10:34:40.921Z,6.40
2022-08-14T10:37:17.594Z,6.80
2022-08-14T10:40:10.480Z,6.60
2022-08-14T10:42:44.091Z,6.20
2022-08-14T10:45:22.333Z,6.00
2022-08-14T10:48:07.637Z,6.80
2022-08-14T10:50:46.343Z,6.80
2022-08-14T10:53:19.973Z,6.20
2022-08-14T10:55:50.463Z,5.87
2022-08-14T10:58:34.414Z,7.40
2022-08-14T11:01:15.341Z,6.60
2022-08-14T11:03:55.894Z,5.73
2022-08-14T11:06:29.410Z,6.77
2022-08-14T11:09:02.676Z,6.37
2022-08-14T11:11:37.349Z,6.17
2022-08-14T11:14:09.347Z,6.13
2022-08-14T11:16:53.447Z,6.93
2022-08-14T11:19:35.351Z,6.40
2022-08-14T11:22:09.559Z,6.47
2022-08-14T11:24:57.627Z,6.90
2022-08-14T11:27:42.189Z,6.50
2022-08-14T11:30:50.343Z,6.60
2022-08-14T11:33:32.498Z,6.47
2022-08-14T11:36:17.768Z,7.00
2022-08-14T11:38:51.491Z,6.13
2022-08-14T11:41:30.738Z,6.20
2022-08-14T11:44:17.688Z,5.60
2022-08-14T11:47:06.867Z,6.50
2022-08-14T11:49:47.551Z,6.23
2022-08-14T11:52:26.418Z,6.57
2022-08-14T11:55:01.594Z,6.37
2022-08-14T11:57:42.182Z,5.67
2022-08-14T12:00:19.587Z,5.70
2022-08-14T12:03:03.234Z,5.97
2022-08-14T12:05:50.564Z,6.60
2022-08-14T12:08:30.021Z,6.00
2022-08-14T12:14:57.204Z,5.50
2022-08-14T12:17:30.067Z,6.53
2022-08-14T12:24:36.122Z,6.47
2022-08-14T12:31:22.265Z,6.07
2022-08-14T12:34:02.015Z,5.90
2022-08-14T12:36:44.038Z,5.63
2022-08-14T12:39:27.765Z,5.93
2022-08-14T12:42:07.326Z,6.00
2022-08-14T12:44:42.905Z,5.87
2022-08-14T12:47:21.380Z,5.63
2022-08-14T12:49:59.309Z,6.60
2022-08-14T12:52:47.359Z,6.73
2022-08-14T12:58:52.504Z,5.10
2022-08-14T13:01:31.205Z,4.37
2022-08-14T13:04:16.990Z,4.43
2022-08-14T13:06:54.837Z,4.87
2022-08-14T13:09:36.481Z,4.70
2022-08-14T13:12:33.235Z,4.87
2022-08-14T13:15:09.043Z,4.80
2022-08-14T13:17:51.224Z,4.53
2022-08-14T13:36:54.194Z,4.23
2022-08-14T14:46:36.463Z,7.78
2022-08-14T14:49:55.672Z,5.57
2022-08-14T14:53:31.199Z,5.30
2022-08-14T14:58:26.317Z,6.50
2022-08-14T15:51:31.381Z,6.20
2022-08-14T16:50:51.171Z,5.87
2022-08-14T16:53:20.849Z,6.33
2022-08-14T16:56:22.990Z,6.37
2022-08-14T16:59:07.342Z,5.40
2022-08-14T17:01:40.518Z,6.00
2022-08-14T17:04:14.874Z,6.43
2022-08-14T17:06:59.182Z,6.43
2022-08-14T17:09:43.337Z,5.63
2022-08-14T17:12:33.526Z,6.60
2022-08-14T17:15:10.045Z,5.23
2022-08-14T17:17:57.812Z,5.50
2022-08-14T17:20:39.744Z,5.67
2022-08-14T17:23:29.744Z,5.90
2022-08-14T17:26:00.296Z,6.23
2022-08-14T17:28:51.740Z,5.43
2022-08-14T17:31:20.942Z,5.97
2022-08-14T17:33:53.005Z,5.57
2022-08-14T17:36:26.835Z,6.17
2022-08-14T17:39:06.650Z,5.10
2022-08-14T17:41:43.839Z,5.63
2022-08-14T17:44:34.265Z,6.33
2022-08-14T17:47:17.794Z,5.80
2022-08-14T17:49:55.547Z,5.50
2022-08-14T17:52:34.698Z,5.70
2022-08-14T17:56:00.912Z,6.00
2022-08-14T17:58:20.501Z,5.87
2022-08-14T18:00:57.835Z,5.43
2022-08-14T18:03:51.115Z,6.07
2022-08-14T18:06:39.903Z,6.27
2022-08-14T18:09:25.220Z,6.27
2022-08-14T18:12:05.752Z,5.87
2022-08-14T18:14:48.807Z,6.20
2022-08-14T18:17:23.817Z,6.50
2022-08-14T18:19:54.140Z,6.10
2022-08-14T18:22:32.357Z,5.47
2022-08-14T18:25:18.036Z,6.27
2022-08-14T18:27:53.198Z,5.70
2022-08-14T18:30:33.272Z,5.53
2022-08-14T18:33:20.981Z,6.57
2022-08-14T18:35:59.025Z,6.10
2022-08-14T18:38:42.910Z,5.70
2022-08-14T18:41:36.267Z,6.20
2022-08-14T18:44:11.090Z,6.70
2022-08-14T18:47:15.035Z,7.07
2022-08-14T18:50:26.074Z,5.40
2022-08-14T18:53:07.678Z,5.90
2022-08-14T18:55:53.728Z,6.67
2022-08-14T18:58:31.139Z,5.60
2022-08-14T19:01:06.180Z,6.07
2022-08-14T19:04:00.397Z,5.90
2022-08-14T19:06:46.351Z,6.40
2022-08-14T19:09:51.249Z,5.20
2022-08-14T19:12:52.246Z,6.17
2022-08-14T19:15:25.781Z,6.10
2022-08-14T19:18:13.914Z,6.50
2022-08-14T19:20:52.971Z,5.90
2022-08-14T19:23:43.896Z,6.30
2022-08-14T19:26:35.578Z,6.30
2022-08-14T19:29:26.127Z,5.67
2022-08-14T19:32:09.358Z,6.37
2022-08-14T19:34:48.016Z,6.30
2022-08-14T19:37:47.823Z,6.60
2022-08-14T19:40:33.907Z,5.90
2022-08-14T19:43:08.891Z,6.00
2022-08-14T19:45:40.865Z,6.37
2022-08-14T19:48:16.098Z,6.63
2022-08-14T19:50:48.854Z,6.27
2022-08-14T19:53:19.015Z,6.43
2022-08-14T19:56:02.149Z,6.53
2022-08-14T19:58:55.212Z,6.73
2022-08-14T20:01:37.013Z,6.70
2022-08-14T20:04:45.159Z,7.00
2022-08-14T20:07:04.358Z,6.70
2022-08-14T20:11:12.351Z,6.50
2022-08-14T20:12:36.180Z,5.63
2022-08-14T20:15:47.019Z,5.87
2022-08-14T20:18:46.010Z,6.17
2022-08-14T20:21:07.772Z,5.37
2022-08-14T20:23:41.350Z,5.30
2022-08-14T20:26:31.246Z,5.60
2022-08-14T20:29:05.146Z,6.40
2022-08-14T20:31:38.561Z,6.10
2022-08-14T20:34:24.444Z,6.07
2022-08-14T20:37:09.981Z,5.77
2022-08-14T20:39:54.895Z,5.97
2022-08-14T20:42:38.943Z,6.10
2022-08-14T20:45:24.860Z,5.73
2022-08-14T20:48:01.222Z,6.17
2022-08-14T20:50:32.745Z,5.60
2022-08-14T20:53:05.621Z,6.47
2022-08-14T20:55:45.183Z,5.87
2022-08-14T20:58:38.713Z,5.33
2022-08-14T21:01:39.885Z,6.07
2022-08-14T21:04:26.508Z,6.33
2022-08-14T21:07:25.489Z,5.83
2022-08-14T21:10:06.460Z,6.30
2022-08-14T21:13:26.725Z,6.80
2022-08-14T21:15:32.098Z,7.17
2022-08-14T21:18:05.397Z,5.30
2022-08-14T21:20:36.925Z,6.17
2022-08-14T21:23:07.719Z,6.80
2022-08-14T21:25:38.307Z,6.63
2022-08-14T21:28:29.952Z,7.17
2022-08-14T21:31:00.679Z,6.13
2022-08-14T21:33:34.339Z,6.40
2022-08-14T21:36:08.041Z,6.60
2022-08-14T21:38:39.294Z,6.17
2022-08-14T21:41:41.364Z,8.67
2022-08-14T21:44:18.259Z,7.10
2022-08-14T21:46:53.344Z,6.90
2022-08-14T21:49:38.254Z,6.10
2022-08-14T21:52:50.350Z,5.73
2022-08-14T21:55:09.161Z,6.30
2022-08-14T21:58:44.465Z,5.73
2022-08-14T22:00:39.746Z,6.30
2022-08-14T22:03:17.399Z,5.57
2022-08-14T22:05:52.776Z,6.77
2022-08-14T22:08:27.030Z,5.97
2022-08-14T22:10:59.119Z,5.30
2022-08-14T22:13:32.552Z,6.77
2022-08-14T22:16:02.770Z,6.37
2022-08-14T22:18:33.579Z,6.50
2022-08-14T22:21:08.076Z,6.40
2022-08-14T22:23:46.379Z,6.27
2022-08-14T22:26:22.102Z,6.80
2022-08-14T22:28:55.567Z,6.87
2022-08-14T22:31:35.030Z,6.00
2022-08-14T22:34:06.633Z,6.57
2022-08-14T22:36:51.267Z,6.40
2022-08-14T22:40:17.699Z,6.20
2022-08-14T22:42:21.522Z,6.30
2022-08-14T22:44:56.810Z,6.00
2022-08-14T22:47:40.350Z,6.40
2022-08-14T22:50:30.669Z,6.77
2022-08-14T22:53:06.754Z,6.13
2022-08-14T22:55:36.821Z,5.33
2022-08-14T22:58:06.917Z,5.67
2022-08-14T23:00:37.476Z,5.27
2022-08-14T23:03:17.363Z,5.63
2022-08-14T23:05:52.530Z,5.13
2022-08-14T23:08:59.490Z,5.00
2022-08-14T23:11:15.435Z,5.10
2022-08-14T23:13:46.454Z,4.67
2022-08-14T23:16:20.029Z,5.13
2022-08-14T23:18:54.218Z,5.30
2022-08-14T23:21:28.873Z,4.90
2022-08-14T23:24:03.122Z,5.20
2022-08-14T23:26:48.209Z,5.33
2022-08-14T23:29:21.353Z,4.87
2022-08-14T23:31:51.695Z,5.27
2022-08-14T23:34:23.988Z,4.93
2022-08-14T23:36:57.264Z,5.70
2022-08-14T23:39:32.878Z,6.20
2022-08-14T23:42:06.267Z,5.73
2022-08-14T23:44:39.184Z,5.73
2022-08-14T23:47:25.611Z,5.60
2022-08-14T23:50:03.392Z,5.87
2022-08-14T23:52:55.609Z,6.50
2022-08-14T23:55:34.719Z,5.33
2022-08-14T23:58:04.490Z,6.03
